createdAt,value
2018-06-12T00:01:35.841Z,34.04
2018-06-12T00:04:05.950Z,34.32
2018-06-12T00:06:34.968Z,34.18
2018-06-12T00:09:04.345Z,34.25
2018-06-12T00:11:33.311Z,34.27
2018-06-12T00:14:02.109Z,33.63
2018-06-12T00:16:31.029Z,34.20
2018-06-12T00:19:00.852Z,33.69
2018-06-12T00:21:29.633Z,34.20
2018-06-12T00:23:58.512Z,33.57
2018-06-12T00:26:27.521Z,34.15
2018-06-12T00:28:56.622Z,33.99
2018-06-12T00:31:25.423Z,33.55
2018-06-12T00:33:54.120Z,34.22
2018-06-12T00:36:22.805Z,34.16
2018-06-12T00:38:51.842Z,33.41
2018-06-12T00:41:20.793Z,33.91
2018-06-12T00:43:49.677Z,33.97
2018-06-12T00:46:18.522Z,33.56
2018-06-12T00:48:47.558Z,33.75
2018-06-12T00:51:16.434Z,33.88
2018-06-12T00:53:45.205Z,34.09
2018-06-12T00:56:23.763Z,34.15
2018-06-12T00:58:52.856Z,33.78
2018-06-12T01:01:21.903Z,33.82
2018-06-12T01:03:50.657Z,34.07
2018-06-12T01:06:19.649Z,33.25
2018-06-12T01:08:49.093Z,33.93
2018-06-12T01:11:18.131Z,33.32
2018-06-12T01:13:47.124Z,33.98
2018-06-12T01:16:16.081Z,33.82
2018-06-12T01:18:45.114Z,33.71
2018-06-12T01:21:14.106Z,33.86
2018-06-12T01:23:43.205Z,34.01
2018-06-12T01:26:12.301Z,33.40
2018-06-12T01:28:41.186Z,33.50
2018-06-12T01:31:10.087Z,33.85
2018-06-12T01:33:38.935Z,33.41
2018-06-12T01:36:07.858Z,32.79
2018-06-12T01:38:36.901Z,33.53
2018-06-12T01:41:05.860Z,33.72
2018-06-12T01:43:34.721Z,33.35
2018-06-12T01:46:03.620Z,32.98
2018-06-12T01:48:32.717Z,33.17
2018-06-12T01:51:01.791Z,33.83
2018-06-12T01:53:30.617Z,32.70
2018-06-12T01:55:59.472Z,33.48
2018-06-12T01:58:28.465Z,33.50
2018-06-12T02:00:57.412Z,33.56
2018-06-12T02:03:26.343Z,33.37
2018-06-12T02:05:55.330Z,33.39
2018-06-12T02:08:23.997Z,33.09
2018-06-12T02:10:53.029Z,33.45
2018-06-12T02:13:22.109Z,33.15
2018-06-12T02:15:50.954Z,32.99
2018-06-12T02:18:19.888Z,33.27
2018-06-12T02:20:48.619Z,33.51
2018-06-12T02:23:17.569Z,33.02
2018-06-12T02:25:46.278Z,33.48
2018-06-12T02:28:15.093Z,33.65
2018-06-12T02:30:43.935Z,33.65
2018-06-12T02:33:12.705Z,33.30
2018-06-12T02:35:41.608Z,33.74
2018-06-12T02:38:10.676Z,33.15
2018-06-12T02:40:39.456Z,33.35
2018-06-12T02:43:08.218Z,33.68
2018-06-12T02:45:37.202Z,33.24
2018-06-12T02:48:06.244Z,33.53
2018-06-12T02:50:35.237Z,33.10
2018-06-12T02:53:04.130Z,33.75
2018-06-12T02:55:32.989Z,33.75
2018-06-12T02:58:02.652Z,33.66
2018-06-12T03:00:31.471Z,33.47
2018-06-12T03:03:00.473Z,32.99
2018-06-12T03:05:30.269Z,33.85
2018-06-12T03:07:59.193Z,33.07
2018-06-12T03:10:27.975Z,33.91
2018-06-12T03:12:56.987Z,33.58
2018-06-12T03:15:25.934Z,33.27
2018-06-12T03:17:54.766Z,33.06
2018-06-12T03:20:36.578Z,32.95
2018-06-12T03:23:05.471Z,33.70
2018-06-12T03:25:34.482Z,33.65
2018-06-12T03:28:03.697Z,32.97
2018-06-12T03:30:32.614Z,33.39
2018-06-12T03:33:01.286Z,34.17
2018-06-12T03:35:30.333Z,33.66
2018-06-12T03:37:59.217Z,32.91
2018-06-12T03:40:28.046Z,33.86
2018-06-12T03:42:56.894Z,33.20
2018-06-12T03:45:25.962Z,33.20
2018-06-12T03:47:55.219Z,33.68
2018-06-12T03:50:23.941Z,33.81
2018-06-12T03:52:52.621Z,33.45
2018-06-12T03:55:21.397Z,33.39
2018-06-12T03:57:50.218Z,33.76
2018-06-12T04:00:19.404Z,33.24
2018-06-12T04:02:48.102Z,33.17
2018-06-12T04:05:17.046Z,33.53
2018-06-12T04:07:46.041Z,33.43
2018-06-12T04:10:14.822Z,33.50
2018-06-12T04:12:43.650Z,33.48
2018-06-12T04:15:12.595Z,32.95
2018-06-12T04:17:41.518Z,33.18
2018-06-12T04:20:10.251Z,32.47
2018-06-12T04:22:38.946Z,33.36
2018-06-12T04:25:07.639Z,33.35
2018-06-12T04:27:36.468Z,33.47
2018-06-12T04:30:05.391Z,33.49
2018-06-12T04:32:34.176Z,32.98
2018-06-12T04:35:03.014Z,33.09
2018-06-12T04:37:31.866Z,33.13
2018-06-12T04:40:00.725Z,33.02
2018-06-12T04:42:29.456Z,33.17
2018-06-12T04:44:58.395Z,32.67
2018-06-12T04:47:27.421Z,33.20
2018-06-12T04:49:56.214Z,32.47
2018-06-12T04:52:25.082Z,32.92
2018-06-12T04:54:53.994Z,33.21
2018-06-12T04:57:23.068Z,32.67
2018-06-12T04:59:51.977Z,32.59
2018-06-12T05:02:21.229Z,33.14
2018-06-12T05:04:50.006Z,33.09
2018-06-12T05:07:18.922Z,32.44
2018-06-12T05:09:48.076Z,32.87
2018-06-12T05:12:17.158Z,32.46
2018-06-12T05:14:45.951Z,32.83
2018-06-12T05:17:14.838Z,32.70
2018-06-12T05:19:43.667Z,32.58
2018-06-12T05:22:12.519Z,33.42
2018-06-12T05:24:41.456Z,33.16
2018-06-12T05:27:10.267Z,32.67
2018-06-12T05:29:39.245Z,33.09
2018-06-12T05:32:08.442Z,33.04
2018-06-12T05:34:37.645Z,33.04
2018-06-12T05:37:06.477Z,33.32
2018-06-12T05:39:35.579Z,32.73
2018-06-12T05:42:04.579Z,32.59
2018-06-12T05:44:33.629Z,32.82
2018-06-12T05:47:02.477Z,33.22
2018-06-12T05:49:31.418Z,32.81
2018-06-12T05:52:00.412Z,32.62
2018-06-12T05:54:29.333Z,32.58
2018-06-12T05:56:58.139Z,32.90
2018-06-12T05:59:27.031Z,32.49
2018-06-12T06:01:55.974Z,32.63
2018-06-12T06:04:24.921Z,33.07
2018-06-12T06:06:53.661Z,32.45
2018-06-12T06:09:22.589Z,32.97
2018-06-12T06:11:52.091Z,32.84
2018-06-12T06:14:20.834Z,33.04
2018-06-12T06:16:49.786Z,33.07
2018-06-12T06:19:18.874Z,32.68
2018-06-12T06:21:47.626Z,32.42
2018-06-12T06:24:16.401Z,33.08
2018-06-12T06:26:45.466Z,32.70
2018-06-12T06:29:14.337Z,33.65
2018-06-12T06:31:43.073Z,34.10
2018-06-12T06:34:11.914Z,33.81
2018-06-12T06:36:40.633Z,33.85
2018-06-12T06:39:09.406Z,33.92
2018-06-12T06:41:38.169Z,33.16
2018-06-12T06:44:07.127Z,33.92
2018-06-12T06:46:35.789Z,33.96
2018-06-12T06:49:04.652Z,33.74
2018-06-12T06:51:33.387Z,35.17
2018-06-12T06:54:02.091Z,35.46
2018-06-12T06:56:30.781Z,34.88
2018-06-12T06:58:59.499Z,35.30
2018-06-12T07:01:28.251Z,35.61
2018-06-12T07:03:56.940Z,36.51
2018-06-12T07:06:25.684Z,36.52
2018-06-12T07:08:54.471Z,36.67
2018-06-12T07:11:23.186Z,36.55
2018-06-12T07:13:52.056Z,36.34
2018-06-12T07:16:20.965Z,36.86
2018-06-12T07:18:49.922Z,36.29
2018-06-12T07:21:19.570Z,36.40
2018-06-12T07:23:48.446Z,36.82
2018-06-12T07:26:17.190Z,36.39
2018-06-12T07:28:45.952Z,36.67
2018-06-12T07:31:14.758Z,37.11
2018-06-12T07:33:43.733Z,36.63
2018-06-12T07:36:12.526Z,36.83
2018-06-12T07:38:41.246Z,36.50
2018-06-12T07:41:10.154Z,37.35
2018-06-12T07:43:38.939Z,36.96
2018-06-12T07:46:07.706Z,37.27
2018-06-12T07:48:36.529Z,37.19
2018-06-12T07:51:05.465Z,36.70
2018-06-12T07:53:34.538Z,37.38
2018-06-12T07:56:03.663Z,37.13
2018-06-12T07:58:32.362Z,36.59
2018-06-12T08:01:01.178Z,37.06
2018-06-12T08:03:29.927Z,36.96
2018-06-12T08:05:58.662Z,36.36
2018-06-12T08:08:27.371Z,36.90
2018-06-12T08:10:56.142Z,37.03
2018-06-12T08:13:24.881Z,36.32
2018-06-12T08:15:53.607Z,36.79
2018-06-12T08:18:22.300Z,36.92
2018-06-12T08:20:51.067Z,36.29
2018-06-12T08:23:19.839Z,36.12
2018-06-12T08:25:48.614Z,36.42
2018-06-12T08:28:17.638Z,36.55
2018-06-12T08:30:46.390Z,36.14
2018-06-12T08:33:15.086Z,36.20
2018-06-12T08:35:43.882Z,36.78
2018-06-12T08:38:12.914Z,35.96
2018-06-12T08:40:41.626Z,36.03
2018-06-12T08:43:10.361Z,36.26
2018-06-12T08:45:39.250Z,36.01
2018-06-12T08:48:08.088Z,35.98
2018-06-12T08:50:36.923Z,35.26
2018-06-12T08:53:06.019Z,36.26
2018-06-12T08:55:34.722Z,35.76
2018-06-12T08:58:03.525Z,36.40
2018-06-12T09:00:32.858Z,36.35
2018-06-12T09:03:01.848Z,35.87
2018-06-12T09:05:30.781Z,36.01
2018-06-12T09:07:59.830Z,35.36
2018-06-12T09:10:28.610Z,35.62
2018-06-12T09:12:57.423Z,35.41
2018-06-12T09:15:26.128Z,36.01
2018-06-12T09:17:54.893Z,35.16
2018-06-12T09:20:23.781Z,35.41
2018-06-12T09:22:52.464Z,35.47
2018-06-12T09:25:21.183Z,35.71
2018-06-12T09:27:50.337Z,35.86
2018-06-12T09:30:19.659Z,35.09
2018-06-12T09:32:48.370Z,35.29
2018-06-12T09:35:17.117Z,35.00
2018-06-12T09:37:45.865Z,35.25
2018-06-12T09:40:14.589Z,35.66
2018-06-12T09:42:43.421Z,35.59
2018-06-12T09:45:12.202Z,34.61
2018-06-12T09:47:41.114Z,34.51
2018-06-12T09:50:09.999Z,34.49
2018-06-12T09:52:38.714Z,35.30
2018-06-12T09:55:07.434Z,34.77
2018-06-12T09:57:36.155Z,35.55
2018-06-12T10:00:05.024Z,34.83
2018-06-12T10:02:33.754Z,34.80
2018-06-12T10:05:02.492Z,35.31
2018-06-12T10:07:31.280Z,34.38
2018-06-12T10:10:00.137Z,35.30
2018-06-12T10:12:29.073Z,35.02
2018-06-12T10:14:58.110Z,34.43
2018-06-12T10:17:27.807Z,34.80
2018-06-12T10:19:56.555Z,34.72
2018-06-12T10:22:25.464Z,34.92
2018-06-12T10:24:54.589Z,34.76
2018-06-12T10:27:23.414Z,34.57
2018-06-12T10:29:52.321Z,34.32
2018-06-12T10:32:21.279Z,34.84
2018-06-12T10:34:50.184Z,34.20
2018-06-12T10:37:18.972Z,34.11
2018-06-12T10:39:47.712Z,34.24
2018-06-12T10:42:16.457Z,34.83
2018-06-12T10:44:45.243Z,34.70
2018-06-12T10:47:14.056Z,34.31
2018-06-12T10:49:42.815Z,33.92
2018-06-12T10:52:11.544Z,34.29
2018-06-12T10:54:40.259Z,34.02
2018-06-12T10:57:09.012Z,33.92
2018-06-12T10:59:37.697Z,34.18
2018-06-12T11:02:06.443Z,34.62
2018-06-12T11:04:35.178Z,34.28
2018-06-12T11:07:04.130Z,34.13
2018-06-12T11:09:32.850Z,34.04
2018-06-12T11:12:01.616Z,33.66
2018-06-12T11:14:31.180Z,33.66
2018-06-12T11:16:59.919Z,34.39
2018-06-12T11:19:28.865Z,33.98
2018-06-12T11:21:57.607Z,33.64
2018-06-12T11:24:26.352Z,34.26
2018-06-12T11:26:55.466Z,33.60
2018-06-12T11:29:24.205Z,33.76
2018-06-12T11:31:52.915Z,33.96
2018-06-12T11:34:21.686Z,34.02
2018-06-12T11:36:50.433Z,34.40
2018-06-12T11:39:19.242Z,33.91
2018-06-12T11:41:47.983Z,33.90
2018-06-12T11:44:16.649Z,33.60
2018-06-12T11:46:45.346Z,33.36
2018-06-12T11:49:14.204Z,33.95
2018-06-12T11:51:43.072Z,34.27
2018-06-12T11:54:12.051Z,34.12
2018-06-12T11:56:41.086Z,33.54
2018-06-12T11:59:10.083Z,33.10
2018-06-12T12:01:38.967Z,33.90
2018-06-12T12:04:07.712Z,33.52
2018-06-12T12:06:36.783Z,33.69
2018-06-12T12:09:08.519Z,33.81
2018-06-12T12:11:37.811Z,33.26
2018-06-12T12:14:06.916Z,34.03
2018-06-12T12:16:35.592Z,33.57
2018-06-12T12:19:04.454Z,33.19
2018-06-12T12:21:33.149Z,33.55
2018-06-12T12:24:01.976Z,33.43
2018-06-12T12:26:30.705Z,33.43
2018-06-12T12:28:59.488Z,33.12
2018-06-12T12:31:28.230Z,33.23
2018-06-12T12:33:56.940Z,33.19
2018-06-12T12:36:25.706Z,32.98
2018-06-12T12:38:54.452Z,33.65
2018-06-12T12:41:23.236Z,33.10
2018-06-12T12:43:51.984Z,33.71
2018-06-12T12:46:20.750Z,32.98
2018-06-12T12:48:49.493Z,33.67
2018-06-12T12:51:18.167Z,33.58
2018-06-12T12:53:47.165Z,33.32
2018-06-12T12:56:16.028Z,33.26
2018-06-12T12:58:44.814Z,33.78
2018-06-12T13:01:13.529Z,33.32
2018-06-12T13:03:42.920Z,33.66
2018-06-12T13:06:11.679Z,33.75
2018-06-12T13:08:40.401Z,33.47
2018-06-12T13:11:09.126Z,33.69
2018-06-12T13:13:37.885Z,33.43
2018-06-12T13:16:06.696Z,33.67
2018-06-12T13:18:35.426Z,33.82
2018-06-12T13:21:04.279Z,33.60
2018-06-12T13:23:33.123Z,33.39
2018-06-12T13:26:01.915Z,32.71
2018-06-12T13:28:30.715Z,33.14
2018-06-12T13:30:59.597Z,33.39
2018-06-12T13:33:28.453Z,33.01
2018-06-12T13:35:57.250Z,32.99
2018-06-12T13:38:26.089Z,32.98
2018-06-12T13:40:55.060Z,33.19
2018-06-12T13:43:24.052Z,33.26
2018-06-12T13:45:52.926Z,33.25
2018-06-12T13:48:22.548Z,33.24
2018-06-12T13:50:51.739Z,32.84
2018-06-12T13:53:20.817Z,32.58
2018-06-12T13:55:49.987Z,32.96
2018-06-12T13:58:19.466Z,33.04
2018-06-12T14:00:48.557Z,32.98
2018-06-12T14:03:17.657Z,33.01
2018-06-12T14:05:46.539Z,32.49
2018-06-12T14:08:15.536Z,32.14
2018-06-12T14:10:44.366Z,32.69
2018-06-12T14:13:13.235Z,32.42
2018-06-12T14:15:42.504Z,32.32
2018-06-12T14:18:11.562Z,32.44
2018-06-12T14:20:40.429Z,32.69
2018-06-12T14:23:09.389Z,32.78
2018-06-12T14:25:38.213Z,32.12
2018-06-12T14:28:07.177Z,32.34
2018-06-12T14:30:36.273Z,32.93
2018-06-12T14:33:05.483Z,32.78
2018-06-12T14:35:34.566Z,32.21
2018-06-12T14:38:03.696Z,32.80
2018-06-12T14:40:32.774Z,32.38
2018-06-12T14:43:01.919Z,32.84
2018-06-12T14:45:30.848Z,32.25
2018-06-12T14:47:59.699Z,31.79
2018-06-12T14:50:28.587Z,32.85
2018-06-12T14:52:57.987Z,32.46
2018-06-12T14:55:27.129Z,32.54
2018-06-12T14:57:56.205Z,32.00
2018-06-12T15:00:25.171Z,32.30
2018-06-12T15:02:54.373Z,32.44
2018-06-12T15:05:23.396Z,32.14
2018-06-12T15:07:52.508Z,32.83
2018-06-12T15:10:21.613Z,32.67
2018-06-12T15:12:50.595Z,32.91
2018-06-12T15:15:19.541Z,32.94
2018-06-12T15:17:48.534Z,32.94
2018-06-12T15:20:17.603Z,32.64
2018-06-12T15:22:46.708Z,33.40
2018-06-12T15:25:15.482Z,33.19
2018-06-12T15:27:44.361Z,32.69
2018-06-12T15:30:13.559Z,33.08
2018-06-12T15:32:43.064Z,33.06
2018-06-12T15:35:11.960Z,32.81
2018-06-12T15:37:40.852Z,32.75
2018-06-12T15:40:09.866Z,32.27
2018-06-12T15:42:38.696Z,32.34
2018-06-12T15:45:07.728Z,32.87
2018-06-12T15:47:36.519Z,33.04
2018-06-12T15:50:05.525Z,32.50
2018-06-12T15:52:34.372Z,32.69
2018-06-12T15:55:03.247Z,32.92
2018-06-12T15:57:32.358Z,32.45
2018-06-12T16:00:01.593Z,32.44
2018-06-12T16:02:30.380Z,32.89
2018-06-12T16:04:59.888Z,32.77
2018-06-12T16:07:28.617Z,33.04
2018-06-12T16:09:57.448Z,32.76
2018-06-12T16:12:26.519Z,32.84
2018-06-12T16:14:55.660Z,32.40
2018-06-12T16:17:24.447Z,32.17
2018-06-12T16:19:53.238Z,31.99
2018-06-12T16:22:22.092Z,33.13
2018-06-12T16:24:50.871Z,32.19
2018-06-12T16:27:19.617Z,32.34
2018-06-12T16:29:48.603Z,32.58
2018-06-12T16:32:17.747Z,32.22
2018-06-12T16:34:46.568Z,32.71
2018-06-12T16:37:15.570Z,32.40
2018-06-12T16:39:44.554Z,31.98
2018-06-12T16:42:13.471Z,32.72
2018-06-12T16:44:42.462Z,32.52
2018-06-12T16:47:11.530Z,32.71
2018-06-12T16:49:40.554Z,32.38
2018-06-12T16:52:09.544Z,32.60
2018-06-12T16:54:38.868Z,32.51
2018-06-12T16:57:08.152Z,32.80
2018-06-12T16:59:38.107Z,32.14
2018-06-12T17:02:06.905Z,32.07
2018-06-12T17:04:35.950Z,32.14
2018-06-12T17:07:04.942Z,32.08
2018-06-12T17:09:34.104Z,32.40
2018-06-12T17:12:02.990Z,32.52
2018-06-12T17:14:32.145Z,32.40
2018-06-12T17:17:01.130Z,32.05
2018-06-12T17:19:29.887Z,32.50
2018-06-12T17:21:59.809Z,32.09
2018-06-12T17:24:28.751Z,32.52
2018-06-12T17:26:57.507Z,32.80
2018-06-12T17:29:26.723Z,31.78
2018-06-12T17:31:55.838Z,32.68
2018-06-12T17:34:24.968Z,32.84
2018-06-12T17:36:53.894Z,32.75
2018-06-12T17:39:23.080Z,32.69
2018-06-12T17:41:52.089Z,32.00
2018-06-12T17:44:21.174Z,32.51
2018-06-12T17:46:50.200Z,32.14
2018-06-12T17:49:19.073Z,32.57
2018-06-12T17:51:48.064Z,32.09
2018-06-12T17:54:16.958Z,32.59
2018-06-12T17:56:45.847Z,32.86
2018-06-12T17:59:14.740Z,33.03
2018-06-12T18:01:43.582Z,32.32
2018-06-12T18:04:12.420Z,32.12
2018-06-12T18:06:41.282Z,31.89
2018-06-12T18:09:11.557Z,32.82
2018-06-12T18:14:52.844Z,32.74
2018-06-12T18:17:21.707Z,32.57
2018-06-12T18:19:55.732Z,32.82
2018-06-12T18:22:24.578Z,32.39
2018-06-12T18:24:53.401Z,32.40
2018-06-12T18:27:22.214Z,32.59
2018-06-12T18:29:51.108Z,32.69
2018-06-12T18:32:19.975Z,32.31
2018-06-12T18:34:48.796Z,32.34
2018-06-12T18:37:17.686Z,32.27
2018-06-12T18:39:46.543Z,31.81
2018-06-12T18:42:15.303Z,32.38
2018-06-12T18:44:44.194Z,32.07
2018-06-12T18:47:13.133Z,32.54
2018-06-12T18:49:41.979Z,31.83
2018-06-12T18:52:10.785Z,31.86
2018-06-12T18:54:40.093Z,32.12
2018-06-12T18:57:08.892Z,32.17
2018-06-12T18:59:37.805Z,32.19
2018-06-12T19:02:06.840Z,32.53
2018-06-12T19:04:35.863Z,32.17
2018-06-12T19:07:04.982Z,31.63
2018-06-12T19:09:34.192Z,31.58
2018-06-12T19:12:04.033Z,31.93
2018-06-12T19:14:32.962Z,31.60
2018-06-12T19:17:02.199Z,31.52
2018-06-12T19:19:30.968Z,32.07
2018-06-12T19:21:59.778Z,32.03
2018-06-12T19:24:28.670Z,31.29
2018-06-12T19:26:57.890Z,31.50
2018-06-12T19:29:26.649Z,32.08
2018-06-12T19:31:55.498Z,32.12
2018-06-12T19:34:24.537Z,31.16
2018-06-12T19:36:53.548Z,31.39
2018-06-12T19:39:22.339Z,31.27
2018-06-12T19:41:51.284Z,31.43
2018-06-12T19:44:20.211Z,31.35
2018-06-12T19:46:49.293Z,31.87
2018-06-12T19:49:18.046Z,31.76
2018-06-12T19:51:47.808Z,31.72
2018-06-12T19:54:16.653Z,31.29
2018-06-12T19:56:45.598Z,31.38
2018-06-12T19:59:14.632Z,31.26
2018-06-12T20:01:43.442Z,31.44
2018-06-12T20:04:12.937Z,31.50
2018-06-12T20:06:42.826Z,31.41
2018-06-12T20:09:11.641Z,31.78
2018-06-12T20:11:40.670Z,31.23
2018-06-12T20:14:09.475Z,31.80
2018-06-12T20:16:38.366Z,31.09
2018-06-12T20:19:07.237Z,31.05
2018-06-12T20:21:35.969Z,31.13
2018-06-12T20:24:04.835Z,31.92
2018-06-12T20:26:33.772Z,31.29
2018-06-12T20:29:02.626Z,31.88
2018-06-12T20:31:31.515Z,31.67
2018-06-12T20:34:00.384Z,31.68
2018-06-12T20:36:29.135Z,31.33
2018-06-12T20:38:58.032Z,31.17
2018-06-12T20:41:27.078Z,30.88
2018-06-12T20:43:56.070Z,30.97
2018-06-12T20:46:24.862Z,31.10
2018-06-12T20:48:53.695Z,31.48
2018-06-12T20:51:22.496Z,31.42
2018-06-12T20:53:51.414Z,31.19
2018-06-12T20:56:20.199Z,31.44
2018-06-12T20:58:49.052Z,31.39
2018-06-12T21:01:18.018Z,31.38
2018-06-12T21:03:47.236Z,30.68
2018-06-12T21:06:16.142Z,31.32
2018-06-12T21:08:45.207Z,31.00
2018-06-12T21:11:14.084Z,31.51
2018-06-12T21:13:42.965Z,30.48
2018-06-12T21:16:11.828Z,30.85
2018-06-12T21:18:40.803Z,31.53
2018-06-12T21:21:09.527Z,31.43
2018-06-12T21:23:38.356Z,31.58
2018-06-12T21:26:07.387Z,30.93
2018-06-12T21:28:36.256Z,30.58
2018-06-12T21:31:05.997Z,31.12
2018-06-12T21:33:34.723Z,31.13
2018-06-12T21:36:03.599Z,30.82
2018-06-12T21:38:32.358Z,30.52
2018-06-12T21:41:01.141Z,31.45
2018-06-12T21:43:29.863Z,31.43
2018-06-12T21:45:58.667Z,31.17
2018-06-12T21:48:27.417Z,32.09
2018-06-12T21:50:56.301Z,32.50
2018-06-12T21:53:25.103Z,32.40
2018-06-12T21:55:53.842Z,32.75
2018-06-12T21:58:22.561Z,32.52
2018-06-12T22:00:51.434Z,32.72
2018-06-12T22:03:20.203Z,32.88
2018-06-12T22:05:48.936Z,32.97
2018-06-12T22:08:17.699Z,33.30
2018-06-12T22:10:46.503Z,32.84
2018-06-12T22:13:15.293Z,33.11
2018-06-12T22:15:44.061Z,33.39
2018-06-12T22:18:12.867Z,32.86
2018-06-12T22:20:41.622Z,33.09
2018-06-12T22:23:10.410Z,33.26
2018-06-12T22:25:39.199Z,32.07
2018-06-12T22:28:07.990Z,32.32
2018-06-12T22:30:36.749Z,32.58
2018-06-12T22:33:05.499Z,32.71
2018-06-12T22:35:35.153Z,32.83
2018-06-12T22:38:03.849Z,31.78
2018-06-12T22:40:32.611Z,32.44
2018-06-12T22:43:02.111Z,32.72
2018-06-12T22:45:30.843Z,32.27
2018-06-12T22:47:59.831Z,32.82
2018-06-12T22:50:28.549Z,32.93
2018-06-12T22:52:57.314Z,32.87
2018-06-12T22:55:26.026Z,32.31
2018-06-12T22:57:54.792Z,32.60
2018-06-12T23:00:23.673Z,33.00
2018-06-12T23:02:52.420Z,32.69
2018-06-12T23:05:21.210Z,33.02
2018-06-12T23:07:49.977Z,32.44
2018-06-12T23:10:18.867Z,33.47
2018-06-12T23:12:47.619Z,33.22
2018-06-12T23:15:16.393Z,32.80
2018-06-12T23:17:45.099Z,33.29
2018-06-12T23:20:24.994Z,32.73
2018-06-12T23:22:53.750Z,32.97
2018-06-12T23:25:22.464Z,32.41
2018-06-12T23:27:51.170Z,32.31
2018-06-12T23:30:19.953Z,32.28
2018-06-12T23:32:48.668Z,32.30
2018-06-12T23:35:17.414Z,32.13
2018-06-12T23:37:46.145Z,32.17
2018-06-12T23:40:14.886Z,32.51
2018-06-12T23:42:43.581Z,32.04
2018-06-12T23:45:12.265Z,32.00
2018-06-12T23:47:41.017Z,32.88
2018-06-12T23:50:09.795Z,32.91
2018-06-12T23:52:38.469Z,32.34
2018-06-12T23:55:07.181Z,32.00
2018-06-12T23:57:35.882Z,32.88
